Time,TemperatureF,DewpointF,PressureIn,WindDirection,WindDirectionDegrees,WindSpeedMPH,WindSpeedGustMPH,Humidity,HourlyPrecipIn,Conditions,Clouds,dailyrainin,SolarRadiationWatts/m^2,SoftwareType,DateUTC
2013-12-13 00:02:00,12.4,9.0,30.25,SSW,210,0.0,0.0,86,0.00,,CLR,0.00,0.00,VWS V14.01,2013-12-13 06:02:00,
2013-12-13 00:07:00,12.5,9.4,30.25,SSW,210,0.0,0.0,87,0.00,,CLR,0.00,0.00,VWS V14.01,2013-12-13 06:07:00,
2013-12-13 00:12:00,12.1,9.0,30.25,SSW,210,0.0,0.0,87,0.00,,CLR,0.00,0.00,VWS V14.01,2013-12-13 06:12:00,
2013-12-13 00:17:00,12.5,9.4,30.25,SSW,210,0.0,0.0,87,0.00,,CLR,0.00,0.00,VWS V14.01,2013-12-13 06:17:00,
2013-12-13 00:22:00,13.0,10.1,30.25,SSW,210,0.0,0.0,88,0.00,,CLR,0.00,0.00,VWS V14.01,2013-12-13 06:22:00,
2013-12-13 00:27:00,13.5,10.6,30.25,SSW,210,0.0,0.0,88,0.00,,CLR,0.00,0.00,VWS V14.01,2013-12-13 06:27:00,
2013-12-13 00:32:00,13.5,10.6,30.24,SSW,210,0.0,0.0,88,0.00,,CLR,0.00,0.00,VWS V14.01,2013-12-13 06:32:00,
2013-12-13 00:37:00,14.0,11.1,30.24,SSW,210,0.0,0.0,88,0.00,,CLR,0.00,0.00,VWS V14.01,2013-12-13 06:37:00,
2013-12-13 00:42:00,13.7,10.8,30.24,SSW,210,0.0,0.0,88,0.00,,CLR,0.00,0.00,VWS V14.01,2013-12-13 06:42:00,
2013-12-13 00:47:00,13.9,11.0,30.24,SSW,210,0.0,0.0,88,0.00,,CLR,0.00,0.00,VWS V14.01,2013-12-13 06:47:00,
2013-12-13 00:52:00,14.1,11.2,30.24,SSW,210,0.0,0.0,88,0.00,,CLR,0.00,0.00,VWS V14.01,2013-12-13 06:52:00,
2013-12-13 00:57:00,14.3,11.4,30.23,SSW,210,0.0,0.0,88,0.00,,CLR,0.00,0.00,VWS V14.01,2013-12-13 06:57:00,
2013-12-13 01:02:00,14.3,11.4,30.23,SSW,210,0.0,0.0,88,0.00,,CLR,0.00,0.00,VWS V14.01,2013-12-13 07:02:00,
2013-12-13 01:07:00,14.6,11.7,30.23,SSW,210,0.0,0.0,88,0.00,,CLR,0.00,0.00,VWS V14.01,2013-12-13 07:07:00,
2013-12-13 01:12:00,14.9,12.2,30.22,SSW,210,0.0,0.0,89,0.00,,CLR,0.00,0.00,VWS V14.01,2013-12-13 07:12:00,
2013-12-13 01:17:00,14.9,12.2,30.22,SSW,210,0.0,0.0,89,0.00,,CLR,0.00,0.00,VWS V14.01,2013-12-13 07:17:00,
2013-12-13 01:22:00,14.6,11.7,30.22,SSW,210,0.0,0.0,88,0.00,,CLR,0.00,0.00,VWS V14.01,2013-12-13 07:22:00,
2013-12-13 01:27:00,13.6,10.7,30.22,SSW,210,0.0,0.0,88,0.00,,CLR,0.00,0.00,VWS V14.01,2013-12-13 07:27:00,
2013-12-13 01:32:00,13.6,10.7,30.22,SSW,210,0.0,0.0,88,0.00,,CLR,0.00,0.00,VWS V14.01,2013-12-13 07:32:00,
2013-12-13 01:37:00,14.0,11.4,30.22,SSW,210,0.0,0.0,89,0.00,,CLR,0.00,0.00,VWS V14.01,2013-12-13 07:37:00,
2013-12-13 01:42:00,14.2,11.6,30.22,SSW,210,0.0,0.0,89,0.00,,CLR,0.00,0.00,VWS V14.01,2013-12-13 07:42:00,
2013-12-13 01:47:00,14.5,11.9,30.22,SSW,210,0.0,0.0,89,0.00,,CLR,0.00,0.00,VWS V14.01,2013-12-13 07:47:00,
2013-12-13 01:52:00,14.9,12.2,30.21,SSW,210,0.0,0.0,89,0.00,,CLR,0.00,0.00,VWS V14.01,2013-12-13 07:52:00,
2013-12-13 01:57:00,15.0,12.4,30.21,SSW,210,0.0,0.0,89,0.00,,CLR,0.00,0.00,VWS V14.01,2013-12-13 07:57:00,
2013-12-13 02:02:00,15.0,12.4,30.21,SSW,210,0.0,0.0,89,0.00,,CLR,0.00,0.00,VWS V14.01,2013-12-13 08:02:00,
2013-12-13 02:07:00,14.6,11.9,30.21,SSW,210,1.0,1.0,89,0.00,,CLR,0.00,0.00,VWS V14.01,2013-12-13 08:07:00,
2013-12-13 02:12:00,14.5,11.9,30.20,SSW,210,0.0,0.0,89,0.00,,CLR,0.00,0.00,VWS V14.01,2013-12-13 08:12:00,
2013-12-13 02:17:00,14.5,11.9,30.20,SSW,210,0.0,0.0,89,0.00,,CLR,0.00,0.00,VWS V14.01,2013-12-13 08:17:00,
2013-12-13 02:22:00,14.6,11.9,30.20,SSW,210,0.0,1.0,89,0.00,,CLR,0.00,0.00,VWS V14.01,2013-12-13 08:22:00,
2013-12-13 02:27:00,14.8,12.1,30.20,SSW,210,0.0,1.0,89,0.00,,CLR,0.00,0.00,VWS V14.01,2013-12-13 08:27:00,
2013-12-13 02:32:00,14.8,12.1,30.20,SSW,210,0.0,0.0,89,0.00,,CLR,0.00,0.00,VWS V14.01,2013-12-13 08:32:00,
2013-12-13 02:37:00,14.6,11.9,30.20,SSW,210,0.0,0.0,89,0.00,,CLR,0.00,0.00,VWS V14.01,2013-12-13 08:37:00,
2013-12-13 02:42:00,14.3,11.7,30.20,SSW,210,0.0,0.0,89,0.00,,CLR,0.00,0.00,VWS V14.01,2013-12-13 08:42:00,
2013-12-13 02:47:00,14.2,11.6,30.19,SSW,210,0.0,0.0,89,0.00,,CLR,0.00,0.00,VWS V14.01,2013-12-13 08:47:00,
2013-12-13 02:52:00,14.4,11.8,30.19,SSW,210,0.0,0.0,89,0.00,,CLR,0.00,0.00,VWS V14.01,2013-12-13 08:52:00,
2013-12-13 02:57:00,14.7,12.1,30.19,SSW,210,0.0,1.0,89,0.00,,CLR,0.00,0.00,VWS V14.01,2013-12-13 08:57:00,
2013-12-13 03:02:00,14.7,12.1,30.19,SSW,210,0.0,0.0,89,0.00,,CLR,0.00,0.00,VWS V14.01,2013-12-13 09:02:00,
2013-12-13 03:07:00,14.9,12.2,30.19,SSW,210,0.0,0.0,89,0.00,,CLR,0.00,0.00,VWS V14.01,2013-12-13 09:07:00,
2013-12-13 03:12:00,15.1,12.4,30.19,SSW,210,0.0,0.0,89,0.00,,CLR,0.00,0.00,VWS V14.01,2013-12-13 09:12:00,
2013-12-13 03:17:00,15.1,12.4,30.19,SSW,210,0.0,0.0,89,0.00,,CLR,0.00,0.00,VWS V14.01,2013-12-13 09:17:00,
2013-12-13 03:22:00,15.1,12.4,30.19,SSW,210,0.0,0.0,89,0.00,,CLR,0.00,0.00,VWS V14.01,2013-12-13 09:22:00,
2013-12-13 03:27:00,14.9,12.2,30.18,SSW,210,0.0,0.0,89,0.00,,CLR,0.00,0.00,VWS V14.01,2013-12-13 09:27:00,
2013-12-13 03:32:00,15.0,12.4,30.18,SSW,210,0.0,0.0,89,0.00,,CLR,0.00,0.00,VWS V14.01,2013-12-13 09:32:00,
2013-12-13 03:37:00,15.2,12.6,30.18,SSW,210,0.0,0.0,89,0.00,,CLR,0.00,0.00,VWS V14.01,2013-12-13 09:37:00,
2013-12-13 03:42:00,15.6,12.9,30.18,SSW,210,0.0,0.0,89,0.00,,CLR,0.00,0.00,VWS V14.01,2013-12-13 09:42:00,
2013-12-13 03:47:00,15.4,12.7,30.18,SSW,210,0.0,0.0,89,0.00,,CLR,0.00,0.00,VWS V14.01,2013-12-13 09:47:00,
2013-12-13 03:52:00,14.9,12.0,30.18,SSW,210,0.0,0.0,88,0.00,,CLR,0.00,0.00,VWS V14.01,2013-12-13 09:52:00,
2013-12-13 03:57:00,14.7,11.8,30.18,SSW,210,0.0,0.0,88,0.00,,CLR,0.00,0.00,VWS V14.01,2013-12-13 09:57:00,
2013-12-13 04:02:00,14.3,11.4,30.18,SSW,210,0.0,0.0,88,0.00,,CLR,0.00,0.00,VWS V14.01,2013-12-13 10:02:00,
2013-12-13 04:07:00,14.1,11.2,30.18,SSW,210,0.0,0.0,88,0.00,,CLR,0.00,0.00,VWS V14.01,2013-12-13 10:07:00,
2013-12-13 04:12:00,14.3,11.7,30.17,SSW,210,0.0,0.0,89,0.00,,CLR,0.00,0.00,VWS V14.01,2013-12-13 10:12:00,
2013-12-13 04:17:00,14.5,11.9,30.17,SSW,210,0.0,0.0,89,0.00,,CLR,0.00,0.00,VWS V14.01,2013-12-13 10:17:00,
2013-12-13 04:22:00,14.3,11.4,30.17,SSW,210,0.0,0.0,88,0.00,,CLR,0.00,0.00,VWS V14.01,2013-12-13 10:22:00,
2013-12-13 04:27:00,14.1,11.2,30.17,SSW,210,0.0,0.0,88,0.00,,CLR,0.00,0.00,VWS V14.01,2013-12-13 10:27:00,
2013-12-13 04:32:00,14.1,11.2,30.17,SSW,210,0.0,0.0,88,0.00,,CLR,0.00,0.00,VWS V14.01,2013-12-13 10:32:00,
2013-12-13 04:37:00,14.2,11.6,30.16,SSW,210,0.0,0.0,89,0.00,,CLR,0.00,0.00,VWS V14.01,2013-12-13 10:37:00,
2013-12-13 04:42:00,14.3,11.7,30.16,SSW,210,0.0,0.0,89,0.00,,CLR,0.00,0.00,VWS V14.01,2013-12-13 10:42:00,
2013-12-13 04:47:00,14.1,11.2,30.16,SSW,210,0.0,0.0,88,0.00,,CLR,0.00,0.00,VWS V14.01,2013-12-13 10:47:00,
2013-12-13 04:52:00,13.8,10.9,30.16,SSW,210,0.0,0.0,88,0.00,,CLR,0.00,0.00,VWS V14.01,2013-12-13 10:52:00,
2013-12-13 04:57:00,13.7,10.8,30.16,SSW,210,0.0,0.0,88,0.00,,CLR,0.00,0.00,VWS V14.01,2013-12-13 10:57:00,
2013-12-13 05:02:00,14.2,11.6,30.16,SSW,210,0.0,0.0,89,0.00,,CLR,0.00,0.00,VWS V14.01,2013-12-13 11:02:00,
2013-12-13 05:07:00,14.0,11.1,30.16,SSW,210,0.0,0.0,88,0.00,,CLR,0.00,0.00,VWS V14.01,2013-12-13 11:07:00,
2013-12-13 05:12:00,13.6,10.7,30.16,SSW,210,0.0,0.0,88,0.00,,CLR,0.00,0.00,VWS V14.01,2013-12-13 11:12:00,
2013-12-13 05:17:00,13.5,10.6,30.16,SSW,210,0.0,0.0,88,0.00,,CLR,0.00,0.00,VWS V14.01,2013-12-13 11:17:00,
2013-12-13 05:22:00,13.1,10.2,30.16,SSW,210,0.0,0.0,88,0.00,,CLR,0.00,0.00,VWS V14.01,2013-12-13 11:22:00,
2013-12-13 05:27:00,12.7,9.8,30.16,SSW,210,0.0,0.0,88,0.00,,CLR,0.00,0.00,VWS V14.01,2013-12-13 11:27:00,
2013-12-13 05:32:00,12.5,9.6,30.16,SSW,210,0.0,0.0,88,0.00,,CLR,0.00,0.00,VWS V14.01,2013-12-13 11:32:00,
2013-12-13 05:37:00,12.7,9.8,30.16,SSW,210,0.0,0.0,88,0.00,,CLR,0.00,0.00,VWS V14.01,2013-12-13 11:37:00,
2013-12-13 05:42:00,13.1,10.2,30.15,SSW,210,0.0,0.0,88,0.00,,CLR,0.00,0.00,VWS V14.01,2013-12-13 11:42:00,
2013-12-13 05:47:00,13.5,10.6,30.15,SSW,210,0.0,0.0,88,0.00,,CLR,0.00,0.00,VWS V14.01,2013-12-13 11:47:00,
2013-12-13 05:52:00,13.3,10.4,30.15,SSW,210,0.0,0.0,88,0.00,,CLR,0.00,0.00,VWS V14.01,2013-12-13 11:52:00,
2013-12-13 05:57:00,13.2,10.3,30.15,SSW,210,0.0,0.0,88,0.00,,CLR,0.00,0.00,VWS V14.01,2013-12-13 11:57:00,
2013-12-13 06:02:00,13.6,10.7,30.16,SSW,210,0.0,0.0,88,0.00,,CLR,0.00,0.00,VWS V14.01,2013-12-13 12:02:00,
2013-12-13 06:07:00,13.2,10.3,30.16,SSW,210,0.0,0.0,88,0.00,,CLR,0.00,0.00,VWS V14.01,2013-12-13 12:07:00,
2013-12-13 06:12:00,12.8,9.9,30.16,SSW,210,0.0,0.0,88,0.00,,CLR,0.00,0.00,VWS V14.01,2013-12-13 12:12:00,
2013-12-13 06:17:00,12.7,9.8,30.15,SSW,210,0.0,0.0,88,0.00,,CLR,0.00,0.00,VWS V14.01,2013-12-13 12:17:00,
2013-12-13 06:22:00,13.7,11.1,30.15,SSW,210,0.0,0.0,89,0.00,,CLR,0.00,0.00,VWS V14.01,2013-12-13 12:22:00,
2013-12-13 06:24:00,14.1,11.5,30.15,SSW,210,0.0,0.0,89,0.00,,CLR,0.00,0.00,VWS V14.01,2013-12-13 12:24:00,
2013-12-13 06:29:00,13.5,10.6,30.15,SSW,210,0.0,0.0,88,0.00,,CLR,0.00,0.00,VWS V14.01,2013-12-13 12:29:00,
2013-12-13 06:34:00,13.6,10.7,30.16,SSW,210,0.0,0.0,88,0.00,,CLR,0.00,0.00,VWS V14.01,2013-12-13 12:34:00,
2013-12-13 06:39:00,13.7,10.8,30.16,SSW,210,0.0,0.0,88,0.00,,CLR,0.00,0.00,VWS V14.01,2013-12-13 12:39:00,
2013-12-13 06:44:00,14.8,12.1,30.16,SSW,210,0.0,0.0,89,0.00,,CLR,0.00,0.00,VWS V14.01,2013-12-13 12:44:00,
2013-12-13 06:49:00,15.3,12.6,30.15,SSW,210,2.0,3.0,89,0.00,,CLR,0.00,0.00,VWS V14.01,2013-12-13 12:49:00,
2013-12-13 06:54:00,16.0,13.3,30.15,SSW,210,0.0,2.0,89,0.00,,CLR,0.00,0.00,VWS V14.01,2013-12-13 12:54:00,
2013-12-13 06:59:00,15.8,12.9,30.15,SSW,210,0.0,0.0,88,0.00,,CLR,0.00,0.00,VWS V14.01,2013-12-13 12:59:00,
2013-12-13 07:04:00,14.7,11.5,30.15,SSW,210,0.0,0.0,87,0.00,,CLR,0.00,0.00,VWS V14.01,2013-12-13 13:04:00,
2013-12-13 07:09:00,13.8,10.6,30.15,SSW,210,0.0,0.0,87,0.00,,CLR,0.00,0.00,VWS V14.01,2013-12-13 13:09:00,
2013-12-13 07:14:00,13.7,10.8,30.15,SSW,210,0.0,0.0,88,0.00,,CLR,0.00,0.00,VWS V14.01,2013-12-13 13:14:00,
2013-12-13 07:19:00,13.7,10.8,30.15,SSW,210,0.0,0.0,88,0.00,,CLR,0.00,0.00,VWS V14.01,2013-12-13 13:19:00,
2013-12-13 07:24:00,14.3,11.7,30.15,SSW,210,0.0,0.0,89,0.00,,CLR,0.00,0.00,VWS V14.01,2013-12-13 13:24:00,
2013-12-13 07:29:00,14.9,12.2,30.15,SSW,210,2.0,3.0,89,0.00,,CLR,0.00,5.00,VWS V14.01,2013-12-13 13:29:00,
2013-12-13 07:34:00,15.7,13.0,30.14,SSW,210,3.0,4.0,89,0.00,,CLR,0.00,7.00,VWS V14.01,2013-12-13 13:34:00,
2013-12-13 07:39:00,16.7,14.3,30.14,SSW,210,0.0,2.0,90,0.00,,CLR,0.00,12.00,VWS V14.01,2013-12-13 13:39:00,
2013-12-13 07:44:00,15.5,12.3,30.14,SSW,210,0.0,2.0,87,0.00,,CLR,0.00,16.00,VWS V14.01,2013-12-13 13:44:00,
2013-12-13 07:49:00,14.6,11.4,30.14,SSW,210,0.0,1.0,87,0.00,,CLR,0.00,21.00,VWS V14.01,2013-12-13 13:49:00,
2013-12-13 07:54:00,15.4,12.7,30.15,SSW,210,0.0,1.0,89,0.00,,CLR,0.00,25.00,VWS V14.01,2013-12-13 13:54:00,
2013-12-13 07:59:00,15.9,13.2,30.14,SSW,210,0.0,1.0,89,0.00,,CLR,0.00,28.00,VWS V14.01,2013-12-13 13:59:00,
2013-12-13 08:04:00,16.5,13.8,30.14,SSW,210,0.0,1.0,89,0.00,,CLR,0.00,32.00,VWS V14.01,2013-12-13 14:04:00,
2013-12-13 08:09:00,17.0,14.3,30.14,SSW,210,1.0,1.0,89,0.00,,CLR,0.00,37.00,VWS V14.01,2013-12-13 14:09:00,
2013-12-13 08:14:00,17.4,14.7,30.14,SSW,210,0.0,0.0,89,0.00,,CLR,0.00,40.00,VWS V14.01,2013-12-13 14:14:00,
2013-12-13 08:19:00,16.9,13.7,30.14,SSW,210,0.0,0.0,87,0.00,,CLR,0.00,46.00,VWS V14.01,2013-12-13 14:19:00,
2013-12-13 08:24:00,16.4,13.2,30.14,SSW,210,0.0,0.0,87,0.00,,CLR,0.00,56.00,VWS V14.01,2013-12-13 14:24:00,
2013-12-13 08:29:00,16.2,13.0,30.15,SSW,210,0.0,0.0,87,0.00,,CLR,0.00,65.00,VWS V14.01,2013-12-13 14:29:00,
2013-12-13 08:34:00,16.7,13.8,30.15,SSW,210,1.0,1.0,88,0.00,,CLR,0.00,69.00,VWS V14.01,2013-12-13 14:34:00,
2013-12-13 08:39:00,18.1,15.4,30.15,SSW,210,0.0,0.0,89,0.00,,CLR,0.00,74.00,VWS V14.01,2013-12-13 14:39:00,
2013-12-13 08:44:00,18.7,15.7,30.15,SSW,210,0.0,0.0,88,0.00,,CLR,0.00,81.00,VWS V14.01,2013-12-13 14:44:00,
2013-12-13 08:49:00,18.6,15.6,30.15,SSW,210,0.0,0.0,88,0.00,,CLR,0.00,88.00,VWS V14.01,2013-12-13 14:49:00,
2013-12-13 08:54:00,19.0,16.0,30.15,SSW,210,0.0,2.0,88,0.00,,CLR,0.00,98.00,VWS V14.01,2013-12-13 14:54:00,
2013-12-13 08:59:00,20.0,17.3,30.15,SSW,210,2.0,2.0,89,0.00,,CLR,0.00,109.00,VWS V14.01,2013-12-13 14:59:00,
2013-12-13 09:04:00,20.7,18.0,30.15,SSW,210,0.0,0.0,89,0.00,,CLR,0.00,121.00,VWS V14.01,2013-12-13 15:04:00,
2013-12-13 09:09:00,21.5,18.8,30.15,SSW,210,0.0,0.0,89,0.00,,CLR,0.00,128.00,VWS V14.01,2013-12-13 15:09:00,
2013-12-13 09:14:00,22.0,19.0,30.14,SSW,210,0.0,0.0,88,0.00,,CLR,0.00,135.00,VWS V14.01,2013-12-13 15:14:00,
2013-12-13 09:19:00,22.7,19.7,30.15,SSW,210,0.0,1.0,88,0.00,,CLR,0.00,132.00,VWS V14.01,2013-12-13 15:19:00,
2013-12-13 09:24:00,23.8,21.0,30.14,SSW,210,1.0,2.0,89,0.00,,CLR,0.00,132.00,VWS V14.01,2013-12-13 15:24:00,
2013-12-13 09:29:00,24.6,21.8,30.14,SSW,209,2.0,5.0,89,0.00,,CLR,0.00,134.00,VWS V14.01,2013-12-13 15:29:00,
2013-12-13 09:34:00,25.5,22.5,30.14,SSW,207,5.0,5.0,88,0.00,,CLR,0.00,155.00,VWS V14.01,2013-12-13 15:34:00,
2013-12-13 09:39:00,25.8,22.5,30.14,SSW,201,4.0,5.0,87,0.00,,CLR,0.00,128.00,VWS V14.01,2013-12-13 15:39:00,
2013-12-13 09:44:00,25.8,22.5,30.15,SSW,199,4.0,5.0,87,0.00,,CLR,0.00,148.00,VWS V14.01,2013-12-13 15:44:00,
2013-12-13 09:49:00,26.3,23.0,30.15,SSW,199,2.0,4.0,87,0.00,,CLR,0.00,151.00,VWS V14.01,2013-12-13 15:49:00,
2013-12-13 09:54:00,26.7,23.1,30.15,SSW,199,2.0,4.0,86,0.00,,,0.00,253.00,VWS V14.01,2013-12-13 15:54:00,
2013-12-13 09:59:00,26.6,22.7,30.15,SSW,199,0.0,2.0,85,0.00,,,0.00,118.00,VWS V14.01,2013-12-13 15:59:00,
2013-12-13 10:04:00,26.4,22.2,30.15,SSW,199,1.0,2.0,84,0.00,,,0.00,128.00,VWS V14.01,2013-12-13 16:04:00,
2013-12-13 10:09:00,26.2,22.3,30.14,SSW,199,1.0,3.0,85,0.00,,,0.00,179.00,VWS V14.01,2013-12-13 16:09:00,
2013-12-13 10:14:00,26.6,22.7,30.14,SSW,199,3.0,3.0,85,0.00,,,0.00,192.00,VWS V14.01,2013-12-13 16:14:00,
2013-12-13 10:19:00,26.8,22.6,30.14,SSW,199,1.0,4.0,84,0.00,,,0.00,169.00,VWS V14.01,2013-12-13 16:19:00,
2013-12-13 10:24:00,26.9,22.7,30.14,SSW,199,2.0,3.0,84,0.00,,,0.00,118.00,VWS V14.01,2013-12-13 16:24:00,
2013-12-13 10:29:00,26.7,22.5,30.14,SSW,199,3.0,4.0,84,0.00,,,0.00,111.00,VWS V14.01,2013-12-13 16:29:00,
2013-12-13 10:34:00,26.5,22.3,30.13,SE,139,3.0,3.0,84,0.00,,,0.00,169.00,VWS V14.01,2013-12-13 16:34:00,
2013-12-13 10:39:00,26.7,22.5,30.14,SE,139,2.0,2.0,84,0.00,,,0.00,181.00,VWS V14.01,2013-12-13 16:39:00,
2013-12-13 10:44:00,27.0,22.8,30.13,SE,139,1.0,2.0,84,0.00,,,0.00,264.00,VWS V14.01,2013-12-13 16:44:00,
2013-12-13 10:49:00,27.7,23.5,30.12,SE,139,2.0,4.0,84,0.00,,,0.00,279.00,VWS V14.01,2013-12-13 16:49:00,
2013-12-13 10:54:00,28.0,23.5,30.12,SE,138,2.0,3.0,83,0.00,,,0.00,218.00,VWS V14.01,2013-12-13 16:54:00,
2013-12-13 10:59:00,28.4,23.9,30.12,ESE,123,1.0,3.0,83,0.00,,,0.00,320.00,VWS V14.01,2013-12-13 16:59:00,
2013-12-13 11:04:00,29.0,24.5,30.11,ESE,120,1.0,4.0,83,0.00,,,0.00,394.00,VWS V14.01,2013-12-13 17:04:00,
2013-12-13 11:09:00,29.7,24.9,30.11,ESE,116,2.0,3.0,82,0.00,,,0.00,438.00,VWS V14.01,2013-12-13 17:09:00,
2013-12-13 11:14:00,30.2,25.1,30.11,ESE,106,3.0,4.0,81,0.00,,CLR,0.00,429.00,VWS V14.01,2013-12-13 17:14:00,
2013-12-13 11:19:00,29.9,24.5,30.11,ESE,106,2.0,3.0,80,0.00,,CLR,0.00,267.00,VWS V14.01,2013-12-13 17:19:00,
2013-12-13 11:24:00,30.0,24.6,30.11,ESE,106,1.0,4.0,80,0.00,,CLR,0.00,315.00,VWS V14.01,2013-12-13 17:24:00,
2013-12-13 11:29:00,29.9,24.8,30.11,ESE,106,1.0,3.0,81,0.00,,CLR,0.00,415.00,VWS V14.01,2013-12-13 17:29:00,
2013-12-13 11:34:00,30.5,25.1,30.11,ESE,106,4.0,4.0,80,0.00,,CLR,0.00,371.00,VWS V14.01,2013-12-13 17:34:00,
2013-12-13 11:39:00,30.6,25.2,30.11,ESE,106,0.0,2.0,80,0.00,,CLR,0.00,334.00,VWS V14.01,2013-12-13 17:39:00,
2013-12-13 11:44:00,31.3,25.6,30.10,ESE,106,0.0,2.0,79,0.00,,CLR,0.00,376.00,VWS V14.01,2013-12-13 17:44:00,
2013-12-13 11:49:00,31.5,26.0,30.10,ESE,106,2.0,3.0,80,0.00,,CLR,0.00,341.00,VWS V14.01,2013-12-13 17:49:00,
2013-12-13 11:54:00,31.7,25.9,30.10,ESE,106,1.0,1.0,79,0.00,,,0.00,450.00,VWS V14.01,2013-12-13 17:54:00,
2013-12-13 11:59:00,32.0,25.9,30.10,ESE,106,0.0,0.0,78,0.00,,,0.00,410.00,VWS V14.01,2013-12-13 17:59:00,
2013-12-13 12:04:00,32.4,26.3,30.09,ESE,106,1.0,3.0,78,0.00,,,0.00,443.00,VWS V14.01,2013-12-13 18:04:00,
2013-12-13 12:09:00,32.7,26.3,30.09,ESE,106,3.0,4.0,77,0.00,,,0.00,341.00,VWS V14.01,2013-12-13 18:09:00,
2013-12-13 12:14:00,32.4,26.0,30.09,ESE,106,2.0,2.0,77,0.00,,,0.00,383.00,VWS V14.01,2013-12-13 18:14:00,
2013-12-13 12:19:00,32.8,26.4,30.09,ESE,106,1.0,3.0,77,0.00,,,0.00,408.00,VWS V14.01,2013-12-13 18:19:00,
2013-12-13 12:24:00,33.1,26.4,30.09,ESE,106,2.0,4.0,76,0.00,,,0.00,417.00,VWS V14.01,2013-12-13 18:24:00,
2013-12-13 12:29:00,33.8,27.7,30.09,ESE,111,3.0,5.0,78,0.00,,,0.00,439.00,VWS V14.01,2013-12-13 18:29:00,
2013-12-13 12:34:00,34.2,27.4,30.08,East,91,2.0,4.0,76,0.00,,,0.00,497.00,VWS V14.01,2013-12-13 18:34:00,
2013-12-13 12:39:00,33.9,27.5,30.08,East,92,1.0,5.0,77,0.00,,,0.00,534.00,VWS V14.01,2013-12-13 18:39:00,
2013-12-13 12:44:00,33.7,27.0,30.08,East,92,0.0,1.0,76,0.00,,,0.00,540.00,VWS V14.01,2013-12-13 18:44:00,
2013-12-13 12:49:00,34.4,27.6,30.08,East,80,3.0,5.0,76,0.00,,,0.00,563.00,VWS V14.01,2013-12-13 18:49:00,
2013-12-13 12:54:00,34.9,28.1,30.07,East,80,2.0,4.0,76,0.00,,,0.00,571.00,VWS V14.01,2013-12-13 18:54:00,
2013-12-13 12:59:00,35.2,27.8,30.07,East,80,2.0,4.0,74,0.00,,,0.00,573.00,VWS V14.01,2013-12-13 18:59:00,
2013-12-13 13:04:00,35.9,28.8,30.07,SSW,201,4.0,6.0,75,0.00,,,0.00,585.00,VWS V14.01,2013-12-13 19:04:00,
2013-12-13 13:09:00,36.2,28.7,30.07,SSE,164,3.0,6.0,74,0.00,,,0.00,575.00,VWS V14.01,2013-12-13 19:09:00,
2013-12-13 13:14:00,36.0,28.5,30.07,SE,131,5.0,7.0,74,0.00,,CLR,0.00,506.00,VWS V14.01,2013-12-13 19:14:00,
2013-12-13 13:19:00,35.9,28.8,30.07,ESE,110,5.0,6.0,75,0.00,,CLR,0.00,503.00,VWS V14.01,2013-12-13 19:19:00,
2013-12-13 13:24:00,36.2,28.7,30.07,East,93,5.0,5.0,74,0.00,,CLR,0.00,392.00,VWS V14.01,2013-12-13 19:24:00,
2013-12-13 13:29:00,35.3,27.9,30.06,East,101,3.0,5.0,74,0.00,,CLR,0.00,237.00,VWS V14.01,2013-12-13 19:29:00,
2013-12-13 13:34:00,35.3,28.5,30.06,SE,137,4.0,4.0,76,0.00,,CLR,0.00,290.00,VWS V14.01,2013-12-13 19:34:00,
2013-12-13 13:39:00,35.2,28.4,30.06,East,99,4.0,5.0,76,0.00,,CLR,0.00,353.00,VWS V14.01,2013-12-13 19:39:00,
2013-12-13 13:44:00,35.1,28.6,30.06,ESE,103,3.0,9.0,77,0.00,,CLR,0.00,438.00,VWS V14.01,2013-12-13 19:44:00,
2013-12-13 13:49:00,35.1,28.6,30.06,East,101,3.0,6.0,77,0.00,,CLR,0.00,406.00,VWS V14.01,2013-12-13 19:49:00,
2013-12-13 13:54:00,34.4,27.6,30.06,ESE,104,6.0,6.0,76,0.00,,CLR,0.00,163.00,VWS V14.01,2013-12-13 19:54:00,
2013-12-13 13:59:00,33.9,27.5,30.06,East,95,6.0,7.0,77,0.00,,CLR,0.00,123.00,VWS V14.01,2013-12-13 19:59:00,
2013-12-13 14:04:00,33.5,27.4,30.06,ESE,102,6.0,6.0,78,0.00,,CLR,0.00,116.00,VWS V14.01,2013-12-13 20:04:00,
2013-12-13 14:09:00,33.2,27.4,30.06,East,93,4.0,6.0,79,0.00,,CLR,0.00,102.00,VWS V14.01,2013-12-13 20:09:00,
2013-12-13 14:14:00,33.0,27.5,30.06,East,93,6.0,7.0,80,0.00,,CLR,0.00,120.00,VWS V14.01,2013-12-13 20:14:00,
2013-12-13 14:19:00,32.9,27.4,30.06,East,87,9.0,9.0,80,0.00,,CLR,0.00,141.00,VWS V14.01,2013-12-13 20:19:00,
2013-12-13 14:24:00,32.7,27.5,30.06,East,89,6.0,7.0,81,0.00,,CLR,0.00,141.00,VWS V14.01,2013-12-13 20:24:00,
2013-12-13 14:29:00,32.7,27.5,30.06,East,87,7.0,7.0,81,0.00,,CLR,0.00,137.00,VWS V14.01,2013-12-13 20:29:00,
2013-12-13 14:34:00,32.7,27.5,30.06,East,98,5.0,5.0,81,0.00,,CLR,0.00,142.00,VWS V14.01,2013-12-13 20:34:00,
2013-12-13 14:39:00,32.7,27.5,30.06,East,94,3.0,7.0,81,0.00,,CLR,0.00,153.00,VWS V14.01,2013-12-13 20:39:00,
2013-12-13 14:44:00,32.8,27.6,30.06,East,79,5.0,8.0,81,0.00,,CLR,0.00,148.00,VWS V14.01,2013-12-13 20:44:00,
2013-12-13 14:49:00,32.7,27.5,30.06,ENE,73,8.0,10.0,81,0.00,,CLR,0.00,134.00,VWS V14.01,2013-12-13 20:49:00,
2013-12-13 14:54:00,32.6,27.4,30.06,ENE,78,6.0,8.0,81,0.00,,CLR,0.00,121.00,VWS V14.01,2013-12-13 20:54:00,
2013-12-13 14:59:00,32.5,27.3,30.06,East,89,5.0,8.0,81,0.00,,CLR,0.00,107.00,VWS V14.01,2013-12-13 20:59:00,
2013-12-13 15:04:00,32.4,27.5,30.06,East,89,4.0,10.0,82,0.00,,CLR,0.00,107.00,VWS V14.01,2013-12-13 21:04:00,
2013-12-13 15:09:00,32.3,27.4,30.06,ENE,77,9.0,10.0,82,0.00,,CLR,0.00,123.00,VWS V14.01,2013-12-13 21:09:00,
2013-12-13 15:14:00,32.4,27.8,30.06,East,79,6.0,7.0,83,0.00,,CLR,0.00,116.00,VWS V14.01,2013-12-13 21:14:00,
2013-12-13 15:19:00,32.4,27.8,30.06,East,83,5.0,10.0,83,0.00,,CLR,0.00,95.00,VWS V14.01,2013-12-13 21:19:00,
2013-12-13 15:24:00,32.2,27.6,30.06,East,83,8.0,13.0,83,0.00,,CLR,0.00,79.00,VWS V14.01,2013-12-13 21:24:00,
2013-12-13 15:29:00,32.0,27.4,30.06,ENE,78,5.0,7.0,83,0.00,,CLR,0.00,84.00,VWS V14.01,2013-12-13 21:29:00,
2013-12-13 15:34:00,32.0,27.4,30.06,East,89,9.0,10.0,83,0.00,,CLR,0.00,86.00,VWS V14.01,2013-12-13 21:34:00,
2013-12-13 15:39:00,32.0,27.4,30.07,East,88,5.0,7.0,83,0.00,,CLR,0.00,77.00,VWS V14.01,2013-12-13 21:39:00,
2013-12-13 15:44:00,32.0,27.4,30.07,East,98,6.0,7.0,83,0.00,,CLR,0.00,67.00,VWS V14.01,2013-12-13 21:44:00,
2013-12-13 15:49:00,32.0,27.4,30.07,East,99,5.0,9.0,83,0.00,,CLR,0.00,56.00,VWS V14.01,2013-12-13 21:49:00,
2013-12-13 15:54:00,31.9,27.3,30.07,East,90,8.0,9.0,83,0.00,,,0.00,49.00,VWS V14.01,2013-12-13 21:54:00,
2013-12-13 15:59:00,31.9,27.3,30.07,East,85,6.0,7.0,83,0.00,,,0.00,40.00,VWS V14.01,2013-12-13 21:59:00,
2013-12-13 16:04:00,31.8,27.2,30.07,East,91,4.0,9.0,83,0.00,,,0.00,37.00,VWS V14.01,2013-12-13 22:04:00,
2013-12-13 16:09:00,31.8,27.2,30.08,East,95,4.0,7.0,83,0.00,,,0.00,30.00,VWS V14.01,2013-12-13 22:09:00,
2013-12-13 16:14:00,31.8,27.2,30.08,East,89,5.0,10.0,83,0.00,,,0.00,23.00,VWS V14.01,2013-12-13 22:14:00,
2013-12-13 16:19:00,31.7,27.1,30.08,East,96,6.0,10.0,83,0.00,,,0.00,16.00,VWS V14.01,2013-12-13 22:19:00,
2013-12-13 16:24:00,31.7,27.1,30.08,East,95,4.0,9.0,83,0.00,,,0.00,12.00,VWS V14.01,2013-12-13 22:24:00,
2013-12-13 16:29:00,31.7,27.1,30.08,NE,48,6.0,9.0,83,0.00,,,0.00,7.00,VWS V14.01,2013-12-13 22:29:00,
2013-12-13 16:34:00,31.7,27.1,30.08,ENE,74,5.0,10.0,83,0.00,,,0.00,5.00,VWS V14.01,2013-12-13 22:34:00,
2013-12-13 16:40:00,31.6,27.0,30.08,ENE,62,10.0,10.0,83,0.00,,,0.00,0.00,VWS V14.01,2013-12-13 22:40:00,
2013-12-13 16:45:00,31.6,27.3,30.08,East,89,9.0,12.0,84,0.00,,,0.00,0.00,VWS V14.01,2013-12-13 22:45:00,
2013-12-13 16:50:00,31.5,27.2,30.08,ENE,63,7.0,10.0,84,0.00,,,0.00,0.00,VWS V14.01,2013-12-13 22:50:00,
2013-12-13 16:55:00,31.5,27.2,30.08,East,96,5.0,11.0,84,0.00,,,0.00,0.00,VWS V14.01,2013-12-13 22:55:00,
2013-12-13 16:59:00,31.4,27.1,30.08,East,85,6.0,11.0,84,0.00,,,0.00,0.00,VWS V14.01,2013-12-13 22:59:00,
2013-12-13 17:04:00,31.4,27.1,30.08,East,95,7.0,13.0,84,0.00,,,0.00,0.00,VWS V14.01,2013-12-13 23:04:00,
2013-12-13 17:09:00,31.3,27.0,30.08,East,87,7.0,12.0,84,0.00,,,0.00,0.00,VWS V14.01,2013-12-13 23:09:00,
2013-12-13 17:14:00,31.3,27.0,30.08,East,81,10.0,11.0,84,0.00,,,0.00,0.00,VWS V14.01,2013-12-13 23:14:00,
2013-12-13 17:20:00,31.2,26.9,30.08,ENE,76,10.0,11.0,84,0.00,,,0.00,0.00,VWS V14.01,2013-12-13 23:20:00,
2013-12-13 17:25:00,31.0,26.7,30.08,NE,49,6.0,7.0,84,0.00,,,0.00,0.00,VWS V14.01,2013-12-13 23:25:00,
2013-12-13 17:30:00,30.8,26.5,30.09,East,95,4.0,12.0,84,0.00,,,0.00,0.00,VWS V14.01,2013-12-13 23:30:00,
2013-12-13 17:35:00,30.5,26.2,30.09,ENE,66,13.0,13.0,84,0.00,,,0.00,0.00,VWS V14.01,2013-12-13 23:35:00,
2013-12-13 17:40:00,30.1,25.9,30.09,East,85,6.0,16.0,84,0.00,,,0.00,0.00,VWS V14.01,2013-12-13 23:40:00,
2013-12-13 17:45:00,29.7,25.2,30.09,East,85,8.0,13.0,83,0.00,,,0.00,0.00,VWS V14.01,2013-12-13 23:45:00,
2013-12-13 17:50:00,29.4,24.9,30.09,East,82,7.0,12.0,83,0.00,,,0.00,0.00,VWS V14.01,2013-12-13 23:50:00,
2013-12-13 17:55:00,29.2,24.7,30.09,East,98,16.0,16.0,83,0.00,,BKN022,0.00,0.00,VWS V14.01,2013-12-13 23:55:00,
2013-12-13 18:00:00,29.0,24.5,30.09,ENE,76,10.0,17.0,83,0.00,,BKN022,0.00,0.00,VWS V14.01,2013-12-14 00:00:00,
2013-12-13 18:05:00,28.8,24.3,30.09,East,86,4.0,11.0,83,0.00,,BKN022,0.00,0.00,VWS V14.01,2013-12-14 00:05:00,
2013-12-13 18:10:00,28.6,24.1,30.09,East,97,9.0,15.0,83,0.00,,BKN022,0.00,0.00,VWS V14.01,2013-12-14 00:10:00,
2013-12-13 18:15:00,28.5,24.0,30.09,East,82,13.0,15.0,83,0.00,,BKN022,0.00,0.00,VWS V14.01,2013-12-14 00:15:00,
2013-12-13 18:20:00,28.3,23.8,30.10,ENE,78,9.0,16.0,83,0.00,,BKN022,0.00,0.00,VWS V14.01,2013-12-14 00:20:00,
2013-12-13 18:25:00,28.0,23.2,30.10,ENE,66,5.0,16.0,82,0.00,,BKN022,0.00,0.00,VWS V14.01,2013-12-14 00:25:00,
2013-12-13 18:30:00,27.9,23.1,30.09,East,85,10.0,13.0,82,0.00,,BKN022,0.00,0.00,VWS V14.01,2013-12-14 00:30:00,
2013-12-13 18:35:00,27.8,23.0,30.10,East,83,10.0,14.0,82,0.00,,BKN022,0.00,0.00,VWS V14.01,2013-12-14 00:35:00,
2013-12-13 18:40:00,27.7,22.9,30.10,ENE,72,9.0,15.0,82,0.00,,BKN022,0.00,0.00,VWS V14.01,2013-12-14 00:40:00,
2013-12-13 18:45:00,27.7,23.2,30.10,East,83,6.0,14.0,83,0.00,,BKN022,0.00,0.00,VWS V14.01,2013-12-14 00:45:00,
2013-12-13 18:50:00,27.7,23.2,30.10,East,88,12.0,14.0,83,0.00,,BKN022,0.00,0.00,VWS V14.01,2013-12-14 00:50:00,
2013-12-13 18:55:00,27.7,23.2,30.10,ENE,74,11.0,14.0,83,0.00,,BKN024,0.00,0.00,VWS V14.01,2013-12-14 00:55:00,
2013-12-13 19:00:00,27.5,23.0,30.10,East,79,6.0,15.0,83,0.00,,BKN024,0.00,0.00,VWS V14.01,2013-12-14 01:00:00,
2013-12-13 19:05:00,27.3,22.5,30.10,East,80,6.0,14.0,82,0.00,,BKN024,0.00,0.00,VWS V14.01,2013-12-14 01:05:00,
2013-12-13 19:10:00,27.3,22.8,30.10,ENE,75,10.0,13.0,83,0.00,,BKN024,0.00,0.00,VWS V14.01,2013-12-14 01:10:00,
2013-12-13 19:15:00,27.3,22.8,30.11,ENE,59,7.0,11.0,83,0.00,,BKN024,0.00,0.00,VWS V14.01,2013-12-14 01:15:00,
2013-12-13 19:20:00,27.2,22.7,30.11,NE,56,11.0,12.0,83,0.00,,BKN024,0.00,0.00,VWS V14.01,2013-12-14 01:20:00,
2013-12-13 19:25:00,27.2,22.7,30.11,East,91,9.0,15.0,83,0.00,,BKN024,0.00,0.00,VWS V14.01,2013-12-14 01:25:00,
2013-12-13 19:30:00,27.0,22.5,30.11,East,100,9.0,14.0,83,0.00,,BKN024,0.00,0.00,VWS V14.01,2013-12-14 01:30:00,
2013-12-13 19:35:00,26.9,22.4,30.11,East,84,7.0,13.0,83,0.00,,BKN024,0.00,0.00,VWS V14.01,2013-12-14 01:35:00,
2013-12-13 19:40:00,26.9,22.4,30.12,East,87,6.0,12.0,83,0.00,,BKN024,0.00,0.00,VWS V14.01,2013-12-14 01:40:00,
2013-12-13 19:45:00,26.8,22.3,30.12,NE,54,1.0,11.0,83,0.00,,BKN024,0.00,0.00,VWS V14.01,2013-12-14 01:45:00,
2013-12-13 19:50:00,26.8,22.3,30.12,ENE,74,6.0,10.0,83,0.00,,BKN026,0.00,0.00,VWS V14.01,2013-12-14 01:50:00,
2013-12-13 19:55:00,26.7,22.2,30.12,East,86,4.0,12.0,83,0.00,,BKN026,0.00,0.00,VWS V14.01,2013-12-14 01:55:00,
2013-12-13 20:00:00,26.6,22.1,30.12,East,95,6.0,10.0,83,0.00,,BKN026,0.00,0.00,VWS V14.01,2013-12-14 02:00:00,
2013-12-13 20:05:00,26.5,22.0,30.12,East,85,9.0,11.0,83,0.00,,BKN026,0.00,0.00,VWS V14.01,2013-12-14 02:05:00,
2013-12-13 20:10:00,26.4,22.0,30.12,ENE,65,12.0,14.0,83,0.00,,BKN026,0.00,0.00,VWS V14.01,2013-12-14 02:10:00,
2013-12-13 20:15:00,26.3,21.9,30.12,ENE,69,9.0,12.0,83,0.00,,BKN026,0.00,0.00,VWS V14.01,2013-12-14 02:15:00,
2013-12-13 20:20:00,26.3,21.9,30.12,ENE,61,11.0,13.0,83,0.00,,BKN026,0.00,0.00,VWS V14.01,2013-12-14 02:20:00,
2013-12-13 20:25:00,26.3,21.9,30.12,ENE,75,6.0,10.0,83,0.00,,BKN026,0.00,0.00,VWS V14.01,2013-12-14 02:25:00,
2013-12-13 20:30:00,26.2,21.8,30.12,NE,40,4.0,10.0,83,0.00,,BKN026,0.00,0.00,VWS V14.01,2013-12-14 02:30:00,
2013-12-13 20:35:00,26.2,21.8,30.13,ENE,68,6.0,9.0,83,0.00,,BKN026,0.00,0.00,VWS V14.01,2013-12-14 02:35:00,
2013-12-13 20:40:00,26.1,21.6,30.12,East,82,12.0,13.0,83,0.00,,BKN026,0.00,0.00,VWS V14.01,2013-12-14 02:40:00,
2013-12-13 20:45:00,26.0,21.6,30.12,East,89,5.0,12.0,83,0.00,,BKN026,0.00,0.00,VWS V14.01,2013-12-14 02:45:00,
2013-12-13 20:50:00,26.0,21.6,30.12,ESE,106,9.0,12.0,83,0.00,,OVC026,0.00,0.00,VWS V14.01,2013-12-14 02:50:00,
2013-12-13 20:55:00,26.0,21.6,30.12,East,86,6.0,12.0,83,0.00,,OVC026,0.00,0.00,VWS V14.01,2013-12-14 02:55:00,
2013-12-13 21:00:00,26.0,21.6,30.12,NE,54,6.0,14.0,83,0.00,,OVC026,0.00,0.00,VWS V14.01,2013-12-14 03:00:00,
2013-12-13 21:05:00,26.0,21.6,30.13,East,85,5.0,12.0,83,0.00,,OVC026,0.00,0.00,VWS V14.01,2013-12-14 03:05:00,
2013-12-13 21:10:00,26.0,21.6,30.13,NNE,20,10.0,13.0,83,0.00,,OVC026,0.00,0.00,VWS V14.01,2013-12-14 03:10:00,
2013-12-13 21:15:00,26.0,21.6,30.13,NE,54,14.0,14.0,83,0.00,,OVC026,0.00,0.00,VWS V14.01,2013-12-14 03:15:00,
2013-12-13 21:20:00,26.0,21.6,30.13,ENE,74,9.0,15.0,83,0.00,,OVC026,0.00,0.00,VWS V14.01,2013-12-14 03:20:00,
2013-12-13 21:25:00,26.0,21.3,30.13,East,89,8.0,14.0,82,0.00,,OVC026,0.00,0.00,VWS V14.01,2013-12-14 03:25:00,
2013-12-13 21:30:00,26.0,21.6,30.13,East,90,8.0,11.0,83,0.00,,OVC026,0.00,0.00,VWS V14.01,2013-12-14 03:30:00,
2013-12-13 21:35:00,26.0,21.6,30.12,ENE,74,3.0,11.0,83,0.00,,OVC026,0.00,0.00,VWS V14.01,2013-12-14 03:35:00,
2013-12-13 21:40:00,26.1,21.6,30.12,ENE,75,4.0,10.0,83,0.00,,OVC026,0.00,0.00,VWS V14.01,2013-12-14 03:40:00,
2013-12-13 21:45:00,26.1,21.6,30.12,NE,54,7.0,15.0,83,0.00,,OVC026,0.00,0.00,VWS V14.01,2013-12-14 03:45:00,
2013-12-13 21:50:00,26.1,21.6,30.12,ENE,72,14.0,14.0,83,0.00,,OVC026,0.00,0.00,VWS V14.01,2013-12-14 03:50:00,
2013-12-13 21:55:00,26.1,21.6,30.12,ENE,69,14.0,16.0,83,0.00,,OVC026,0.00,0.00,VWS V14.01,2013-12-14 03:55:00,
2013-12-13 22:00:00,26.1,21.4,30.12,ENE,76,6.0,11.0,82,0.00,,OVC026,0.00,0.00,VWS V14.01,2013-12-14 04:00:00,
2013-12-13 22:05:00,26.2,21.5,30.12,NNE,33,9.0,11.0,82,0.00,,OVC026,0.00,0.00,VWS V14.01,2013-12-14 04:05:00,
2013-12-13 22:10:00,26.2,21.5,30.12,ENE,76,9.0,13.0,82,0.00,,OVC026,0.00,0.00,VWS V14.01,2013-12-14 04:10:00,
2013-12-13 22:15:00,26.2,21.5,30.12,ENE,67,5.0,10.0,82,0.00,,OVC026,0.00,0.00,VWS V14.01,2013-12-14 04:15:00,
2013-12-13 22:20:00,26.2,21.5,30.12,NE,51,9.0,15.0,82,0.00,,OVC026,0.00,0.00,VWS V14.01,2013-12-14 04:20:00,
2013-12-13 22:25:00,26.2,21.5,30.12,ENE,72,13.0,14.0,82,0.00,,OVC026,0.00,0.00,VWS V14.01,2013-12-14 04:25:00,
2013-12-13 22:30:00,26.2,21.5,30.12,East,80,7.0,13.0,82,0.00,,OVC026,0.00,0.00,VWS V14.01,2013-12-14 04:30:00,
2013-12-13 22:35:00,26.2,21.5,30.12,ENE,72,5.0,11.0,82,0.00,,OVC026,0.00,0.00,VWS V14.01,2013-12-14 04:35:00,
2013-12-13 22:40:00,26.2,21.5,30.12,East,81,4.0,12.0,82,0.00,,OVC026,0.00,0.00,VWS V14.01,2013-12-14 04:40:00,
2013-12-13 22:45:00,26.2,21.5,30.12,East,81,9.0,12.0,82,0.00,,OVC026,0.00,0.00,VWS V14.01,2013-12-14 04:45:00,
2013-12-13 22:50:00,26.2,21.5,30.12,ENE,57,7.0,10.0,82,0.00,,OVC026,0.00,0.00,VWS V14.01,2013-12-14 04:50:00,
2013-12-13 22:55:00,26.2,21.5,30.12,ENE,64,5.0,11.0,82,0.00,,OVC026,0.00,0.00,VWS V14.01,2013-12-14 04:55:00,
2013-12-13 23:00:00,26.2,21.5,30.13,ENE,78,8.0,13.0,82,0.00,,OVC026,0.00,0.00,VWS V14.01,2013-12-14 05:00:00,
2013-12-13 23:01:00,26.2,21.5,30.13,ENE,72,5.0,13.0,82,0.00,,OVC026,0.00,0.00,VWS V14.01,2013-12-14 05:01:00,
2013-12-13 23:02:00,26.2,21.5,30.13,ENE,68,7.0,12.0,82,0.00,,OVC026,0.00,0.00,VWS V14.01,2013-12-14 05:02:00,
2013-12-13 23:03:00,26.2,21.5,30.13,East,83,10.0,12.0,82,0.00,,OVC026,0.00,0.00,VWS V14.01,2013-12-14 05:03:00,
2013-12-13 23:08:00,26.2,21.5,30.13,ENE,62,9.0,10.0,82,0.00,,OVC026,0.00,0.00,VWS V14.01,2013-12-14 05:08:00,
2013-12-13 23:13:00,26.2,21.5,30.13,NE,48,1.0,13.0,82,0.00,,OVC026,0.00,0.00,VWS V14.01,2013-12-14 05:13:00,
2013-12-13 23:18:00,26.2,21.5,30.13,NE,37,5.0,12.0,82,0.00,,OVC026,0.00,0.00,VWS V14.01,2013-12-14 05:18:00,
2013-12-13 23:23:00,26.2,21.5,30.13,ENE,66,4.0,7.0,82,0.00,,OVC026,0.00,0.00,VWS V14.01,2013-12-14 05:23:00,
2013-12-13 23:28:00,26.2,21.5,30.13,ENE,64,7.0,10.0,82,0.00,,OVC026,0.00,0.00,VWS V14.01,2013-12-14 05:28:00,
2013-12-13 23:33:00,26.2,21.5,30.13,NE,56,9.0,10.0,82,0.00,,OVC026,0.00,0.00,VWS V14.01,2013-12-14 05:33:00,
2013-12-13 23:38:00,26.1,21.4,30.14,ENE,66,6.0,11.0,82,0.00,,OVC026,0.00,0.00,VWS V14.01,2013-12-14 05:38:00,
2013-12-13 23:43:00,26.0,21.3,30.14,ENE,58,9.0,11.0,82,0.00,,OVC026,0.00,0.00,VWS V14.01,2013-12-14 05:43:00,
2013-12-13 23:48:00,25.9,21.2,30.14,East,94,9.0,11.0,82,0.00,,OVC026,0.00,0.00,VWS V14.01,2013-12-14 05:48:00,
2013-12-13 23:53:00,25.8,21.1,30.14,ENE,73,10.0,10.0,82,0.00,,OVC012,0.00,0.00,VWS V14.01,2013-12-14 05:53:00,
2013-12-13 23:58:00,25.8,21.1,30.14,ENE,65,3.0,10.0,82,0.00,,OVC012,0.00,0.00,VWS V14.01,2013-12-14 05:58:00,